sensor_id;sensor_type;location;lat;lon;timestamp;pressure;altitude;pressure_sealevel;temperature;humidity
18850;BME280;4989;48.772;9.154;2023-02-23T00:02:12;97652.22;;;12.34;81.73
18850;BME280;4989;48.772;9.154;2023-02-23T00:07:15;97650.34;;;12.31;79.12
18850;BME280;4989;48.772;9.154;2023-02-23T00:12:21;97658.09;;;11.60;81.85
18850;BME280;4989;48.772;9.154;2023-02-23T00:17:25;97657.09;;;11.66;83.99
18850;BME280;4989;48.772;9.154;2023-02-23T00:22:27;97655.56;;;11.27;86.38
18850;BME280;4989;48.772;9.154;2023-02-23T00:27:30;97655.25;;;11.51;87.52
18850;BME280;4989;48.772;9.154;2023-02-23T00:32:32;97656.53;;;11.08;90.19
18850;BME280;4989;48.772;9.154;2023-02-23T00:37:36;97659.19;;;10.95;96.33
18850;BME280;4989;48.772;9.154;2023-02-23T00:42:43;97651.69;;;10.86;100.00
18850;BME280;4989;48.772;9.154;2023-02-23T00:47:46;97652.75;;;10.76;100.00
18850;BME280;4989;48.772;9.154;2023-02-23T00:52:50;97642.94;;;10.66;100.00
18850;BME280;4989;48.772;9.154;2023-02-23T00:57:52;97646.09;;;10.77;100.00
18850;BME280;4989;48.772;9.154;2023-02-23T01:02:55;97646.69;;;10.55;100.00
18850;BME280;4989;48.772;9.154;2023-02-23T01:07:57;97641.31;;;10.39;100.00
18850;BME280;4989;48.772;9.154;2023-02-23T01:13:00;97648.59;;;10.42;100.00
18850;BME280;4989;48.772;9.154;2023-02-23T01:18:04;97647.88;;;10.54;100.00
18850;BME280;4989;48.772;9.154;2023-02-23T01:23:08;97645.31;;;10.64;100.00
18850;BME280;4989;48.772;9.154;2023-02-23T01:28:13;97639.78;;;10.38;100.00
18850;BME280;4989;48.772;9.154;2023-02-23T01:33:16;97640.97;;;10.21;100.00
18850;BME280;4989;48.772;9.154;2023-02-23T01:38:18;97643.97;;;10.26;100.00
18850;BME280;4989;48.772;9.154;2023-02-23T01:43:22;97639.31;;;10.27;100.00
18850;BME280;4989;48.772;9.154;2023-02-23T01:48:31;97636.59;;;10.27;100.00
18850;BME280;4989;48.772;9.154;2023-02-23T01:53:41;97635.09;;;10.68;100.00
18850;BME280;4989;48.772;9.154;2023-02-23T01:58:50;97630.16;;;10.50;100.00
18850;BME280;4989;48.772;9.154;2023-02-23T02:03:57;97621.25;;;10.91;100.00
18850;BME280;4989;48.772;9.154;2023-02-23T02:09:03;97619.44;;;11.27;100.00
18850;BME280;4989;48.772;9.154;2023-02-23T02:14:14;97625.41;;;11.34;100.00
18850;BME280;4989;48.772;9.154;2023-02-23T02:41:00;97608.97;;;10.87;100.00
18850;BME280;4989;48.772;9.154;2023-02-23T02:46:15;97600.81;;;10.99;100.00
18850;BME280;4989;48.772;9.154;2023-02-23T02:56:52;97597.22;;;11.03;100.00
18850;BME280;4989;48.772;9.154;2023-02-23T03:02:00;97594.28;;;11.10;100.00
18850;BME280;4989;48.772;9.154;2023-02-23T03:07:30;97599.50;;;11.04;100.00
18850;BME280;4989;48.772;9.154;2023-02-23T03:30:02;97600.22;;;10.66;100.00
18850;BME280;4989;48.772;9.154;2023-02-23T03:35:36;97599.25;;;10.73;100.00
18850;BME280;4989;48.772;9.154;2023-02-23T03:41:00;97601.72;;;10.67;100.00
18850;BME280;4989;48.772;9.154;2023-02-23T03:46:24;97602.31;;;10.75;100.00
18850;BME280;4989;48.772;9.154;2023-02-23T03:51:50;97607.22;;;10.93;100.00
18850;BME280;4989;48.772;9.154;2023-02-23T03:57:16;97606.53;;;10.89;100.00
18850;BME280;4989;48.772;9.154;2023-02-23T04:02:41;97604.69;;;10.73;100.00
18850;BME280;4989;48.772;9.154;2023-02-23T04:08:06;97599.41;;;10.53;100.00
18850;BME280;4989;48.772;9.154;2023-02-23T04:13:30;97597.47;;;10.53;100.00
18850;BME280;4989;48.772;9.154;2023-02-23T04:18:37;97605.28;;;10.51;100.00
18850;BME280;4989;48.772;9.154;2023-02-23T04:23:42;97609.25;;;10.76;100.00
18850;BME280;4989;48.772;9.154;2023-02-23T04:28:45;97604.06;;;10.94;100.00
18850;BME280;4989;48.772;9.154;2023-02-23T04:33:47;97600.63;;;11.32;100.00
18850;BME280;4989;48.772;9.154;2023-02-23T04:38:50;97601.81;;;11.57;100.00
18850;BME280;4989;48.772;9.154;2023-02-23T04:43:52;97605.81;;;11.65;100.00
18850;BME280;4989;48.772;9.154;2023-02-23T04:48:55;97603.75;;;11.69;100.00
18850;BME280;4989;48.772;9.154;2023-02-23T04:53:58;97610.78;;;11.79;100.00
18850;BME280;4989;48.772;9.154;2023-02-23T04:59:01;97606.13;;;11.67;100.00
18850;BME280;4989;48.772;9.154;2023-02-23T05:04:03;97606.88;;;11.80;100.00
18850;BME280;4989;48.772;9.154;2023-02-23T05:09:06;97615.28;;;11.86;100.00
18850;BME280;4989;48.772;9.154;2023-02-23T05:14:09;97610.16;;;11.88;100.00
18850;BME280;4989;48.772;9.154;2023-02-23T05:19:13;97619.53;;;11.74;100.00
18850;BME280;4989;48.772;9.154;2023-02-23T05:24:17;97614.75;;;11.53;100.00
18850;BME280;4989;48.772;9.154;2023-02-23T05:29:20;97616.19;;;11.44;100.00
18850;BME280;4989;48.772;9.154;2023-02-23T05:34:23;97618.78;;;11.48;100.00
18850;BME280;4989;48.772;9.154;2023-02-23T05:39:25;97614.63;;;11.43;100.00
18850;BME280;4989;48.772;9.154;2023-02-23T05:44:28;97622.03;;;11.43;100.00
18850;BME280;4989;48.772;9.154;2023-02-23T05:49:31;97620.94;;;11.40;100.00
18850;BME280;4989;48.772;9.154;2023-02-23T05:54:33;97623.66;;;11.40;100.00
18850;BME280;4989;48.772;9.154;2023-02-23T05:59:36;97624.53;;;11.37;100.00
18850;BME280;4989;48.772;9.154;2023-02-23T06:04:38;97610.94;;;11.37;100.00
18850;BME280;4989;48.772;9.154;2023-02-23T06:09:42;97624.53;;;11.37;100.00
18850;BME280;4989;48.772;9.154;2023-02-23T06:14:46;97616.47;;;11.46;100.00
18850;BME280;4989;48.772;9.154;2023-02-23T06:19:48;97625.31;;;11.38;100.00
18850;BME280;4989;48.772;9.154;2023-02-23T06:24:51;97638.03;;;11.28;100.00
18850;BME280;4989;48.772;9.154;2023-02-23T06:29:53;97639.13;;;11.43;100.00
18850;BME280;4989;48.772;9.154;2023-02-23T06:34:56;97642.63;;;11.57;100.00
18850;BME280;4989;48.772;9.154;2023-02-23T06:39:59;97639.91;;;11.57;100.00
18850;BME280;4989;48.772;9.154;2023-02-23T06:45:02;97647.41;;;11.53;100.00
18850;BME280;4989;48.772;9.154;2023-02-23T06:50:06;97650.69;;;11.60;100.00
18850;BME280;4989;48.772;9.154;2023-02-23T06:55:10;97654.91;;;11.61;100.00
18850;BME280;4989;48.772;9.154;2023-02-23T07:00:14;97661.56;;;11.73;100.00
18850;BME280;4989;48.772;9.154;2023-02-23T07:05:18;97673.75;;;11.43;100.00
18850;BME280;4989;48.772;9.154;2023-02-23T07:10:21;97672.66;;;11.40;100.00
18850;BME280;4989;48.772;9.154;2023-02-23T07:15:24;97671.22;;;11.23;100.00
18850;BME280;4989;48.772;9.154;2023-02-23T07:20:26;97680.03;;;11.27;100.00
18850;BME280;4989;48.772;9.154;2023-02-23T07:25:30;97681.16;;;11.42;100.00
18850;BME280;4989;48.772;9.154;2023-02-23T07:30:32;97680.63;;;11.48;100.00
18850;BME280;4989;48.772;9.154;2023-02-23T07:35:35;97695.22;;;11.54;100.00
18850;BME280;4989;48.772;9.154;2023-02-23T07:40:37;97694.25;;;11.86;100.00
18850;BME280;4989;48.772;9.154;2023-02-23T07:45:40;97690.31;;;12.00;100.00
18850;BME280;4989;48.772;9.154;2023-02-23T07:50:47;97689.41;;;12.15;100.00
18850;BME280;4989;48.772;9.154;2023-02-23T07:55:59;97693.09;;;12.34;100.00
18850;BME280;4989;48.772;9.154;2023-02-23T08:01:02;97681.06;;;12.45;100.00
18850;BME280;4989;48.772;9.154;2023-02-23T08:06:06;97693.34;;;12.49;100.00
18850;BME280;4989;48.772;9.154;2023-02-23T08:11:08;97691.41;;;12.50;100.00
18850;BME280;4989;48.772;9.154;2023-02-23T08:16:11;97697.00;;;12.68;100.00
18850;BME280;4989;48.772;9.154;2023-02-23T08:21:14;97694.41;;;12.87;100.00
18850;BME280;4989;48.772;9.154;2023-02-23T08:26:17;97693.41;;;12.93;100.00
18850;BME280;4989;48.772;9.154;2023-02-23T08:31:19;97699.00;;;12.90;100.00
18850;BME280;4989;48.772;9.154;2023-02-23T08:36:26;97694.09;;;13.06;100.00
18850;BME280;4989;48.772;9.154;2023-02-23T08:41:28;97699.34;;;13.23;100.00
18850;BME280;4989;48.772;9.154;2023-02-23T08:46:31;97696.31;;;13.21;100.00
18850;BME280;4989;48.772;9.154;2023-02-23T08:51:34;97707.09;;;13.24;100.00
18850;BME280;4989;48.772;9.154;2023-02-23T08:56:37;97706.97;;;13.28;100.00
18850;BME280;4989;48.772;9.154;2023-02-23T09:01:42;97705.66;;;13.33;100.00
18850;BME280;4989;48.772;9.154;2023-02-23T09:06:45;97698.69;;;13.32;100.00
18850;BME280;4989;48.772;9.154;2023-02-23T09:11:49;97716.63;;;13.42;100.00
18850;BME280;4989;48.772;9.154;2023-02-23T09:16:51;97704.53;;;13.52;100.00
18850;BME280;4989;48.772;9.154;2023-02-23T09:21:53;97707.72;;;13.50;100.00
18850;BME280;4989;48.772;9.154;2023-02-23T09:26:55;97708.19;;;13.58;100.00
18850;BME280;4989;48.772;9.154;2023-02-23T09:31:58;97712.66;;;13.65;100.00
18850;BME280;4989;48.772;9.154;2023-02-23T09:37:02;97712.75;;;13.61;100.00
18850;BME280;4989;48.772;9.154;2023-02-23T09:53:38;97702.41;;;13.87;100.00
18850;BME280;4989;48.772;9.154;2023-02-23T09:58:42;97701.00;;;14.41;97.04
18850;BME280;4989;48.772;9.154;2023-02-23T10:16:17;97708.59;;;16.38;86.76
18850;BME280;4989;48.772;9.154;2023-02-23T10:21:42;97708.97;;;16.31;83.95
18850;BME280;4989;48.772;9.154;2023-02-23T10:26:57;97706.97;;;16.08;85.22
18850;BME280;4989;48.772;9.154;2023-02-23T10:32:10;97712.63;;;15.62;85.85
18850;BME280;4989;48.772;9.154;2023-02-23T10:37:18;97711.13;;;15.51;87.77
18850;BME280;4989;48.772;9.154;2023-02-23T10:42:26;97701.69;;;15.52;89.12
18850;BME280;4989;48.772;9.154;2023-02-23T10:47:35;97700.50;;;15.44;87.60
18850;BME280;4989;48.772;9.154;2023-02-23T10:52:47;97698.28;;;15.76;86.81
18850;BME280;4989;48.772;9.154;2023-02-23T10:58:04;97705.19;;;15.95;87.12
18850;BME280;4989;48.772;9.154;2023-02-23T11:03:22;97703.81;;;16.24;83.66
18850;BME280;4989;48.772;9.154;2023-02-23T11:08:32;97698.44;;;16.06;80.76
18850;BME280;4989;48.772;9.154;2023-02-23T11:13:48;97698.84;;;15.89;83.04
18850;BME280;4989;48.772;9.154;2023-02-23T11:19:03;97698.19;;;15.94;83.20
18850;BME280;4989;48.772;9.154;2023-02-23T11:24:26;97692.44;;;16.16;78.97
18850;BME280;4989;48.772;9.154;2023-02-23T11:29:42;97686.03;;;16.19;80.88
18850;BME280;4989;48.772;9.154;2023-02-23T11:40:29;97677.44;;;16.51;80.61
18850;BME280;4989;48.772;9.154;2023-02-23T11:45:43;97670.91;;;16.24;81.64
18850;BME280;4989;48.772;9.154;2023-02-23T11:50:48;97665.13;;;16.61;79.67
18850;BME280;4989;48.772;9.154;2023-02-23T11:55:53;97661.84;;;17.40;75.55
18850;BME280;4989;48.772;9.154;2023-02-23T12:01:06;97655.56;;;17.39;75.98
18850;BME280;4989;48.772;9.154;2023-02-23T12:06:37;97658.63;;;16.73;75.45
18850;BME280;4989;48.772;9.154;2023-02-23T12:11:45;97659.75;;;16.03;78.36
18850;BME280;4989;48.772;9.154;2023-02-23T12:16:57;97651.88;;;15.96;78.80
18850;BME280;4989;48.772;9.154;2023-02-23T12:22:26;97641.91;;;16.08;78.90
18850;BME280;4989;48.772;9.154;2023-02-23T12:27:38;97640.91;;;15.96;78.90
18850;BME280;4989;48.772;9.154;2023-02-23T12:33:19;97651.13;;;15.63;79.34
18850;BME280;4989;48.772;9.154;2023-02-23T12:55:23;97633.09;;;15.80;79.21
18850;BME280;4989;48.772;9.154;2023-02-23T13:00:54;97634.09;;;15.92;77.29
18850;BME280;4989;48.772;9.154;2023-02-23T13:27:51;97624.25;;;15.43;82.12
18850;BME280;4989;48.772;9.154;2023-02-23T13:32:56;97621.41;;;15.37;82.91
18850;BME280;4989;48.772;9.154;2023-02-23T13:38:27;97622.94;;;15.29;84.02
18850;BME280;4989;48.772;9.154;2023-02-23T13:43:45;97617.19;;;15.18;87.20
18850;BME280;4989;48.772;9.154;2023-02-23T13:49:21;97620.09;;;15.14;89.15
18850;BME280;4989;48.772;9.154;2023-02-23T13:54:34;97614.50;;;15.08;87.48
18850;BME280;4989;48.772;9.154;2023-02-23T13:59:42;97616.66;;;15.04;87.50
18850;BME280;4989;48.772;9.154;2023-02-23T14:04:46;97616.94;;;14.97;88.00
18850;BME280;4989;48.772;9.154;2023-02-23T14:10:03;97616.97;;;14.88;88.57
18850;BME280;4989;48.772;9.154;2023-02-23T14:31:30;97608.16;;;14.93;87.97
18850;BME280;4989;48.772;9.154;2023-02-23T14:36:36;97607.41;;;14.93;89.80
18850;BME280;4989;48.772;9.154;2023-02-23T14:47:06;97610.59;;;14.91;87.09
18850;BME280;4989;48.772;9.154;2023-02-23T14:52:33;97613.66;;;14.84;86.21
18850;BME280;4989;48.772;9.154;2023-02-23T14:57:42;97619.44;;;14.86;87.99
18850;BME280;4989;48.772;9.154;2023-02-23T15:03:03;97615.78;;;14.80;85.16
18850;BME280;4989;48.772;9.154;2023-02-23T15:08:14;97617.47;;;14.77;84.49
18850;BME280;4989;48.772;9.154;2023-02-23T15:13:34;97614.75;;;14.68;84.70
18850;BME280;4989;48.772;9.154;2023-02-23T15:18:41;97618.22;;;14.78;86.21
18850;BME280;4989;48.772;9.154;2023-02-23T15:23:49;97608.75;;;14.88;85.20
18850;BME280;4989;48.772;9.154;2023-02-23T15:28:52;97616.78;;;15.10;85.72
18850;BME280;4989;48.772;9.154;2023-02-23T15:33:54;97621.47;;;15.09;88.04
18850;BME280;4989;48.772;9.154;2023-02-23T15:39:03;97624.25;;;15.00;90.20
18850;BME280;4989;48.772;9.154;2023-02-23T15:44:23;97623.84;;;14.74;91.99
18850;BME280;4989;48.772;9.154;2023-02-23T15:49:35;97626.13;;;14.66;93.10
18850;BME280;4989;48.772;9.154;2023-02-23T15:55:03;97636.16;;;14.60;93.14
18850;BME280;4989;48.772;9.154;2023-02-23T16:00:18;97629.16;;;14.41;94.48
18850;BME280;4989;48.772;9.154;2023-02-23T16:05:35;97634.63;;;14.41;94.97
18850;BME280;4989;48.772;9.154;2023-02-23T16:10:54;97637.38;;;14.41;94.66
18850;BME280;4989;48.772;9.154;2023-02-23T16:15:58;97631.25;;;14.28;95.37
18850;BME280;4989;48.772;9.154;2023-02-23T16:21:03;97628.25;;;14.26;96.17
18850;BME280;4989;48.772;9.154;2023-02-23T16:27:03;97634.63;;;14.23;96.17
18850;BME280;4989;48.772;9.154;2023-02-23T16:32:01;97626.88;;;14.21;94.52
18850;BME280;4989;48.772;9.154;2023-02-23T16:37:24;97630.81;;;14.20;96.50
18850;BME280;4989;48.772;9.154;2023-02-23T16:42:34;97626.41;;;14.13;96.93
18850;BME280;4989;48.772;9.154;2023-02-23T16:47:45;97627.00;;;14.08;96.08
18850;BME280;4989;48.772;9.154;2023-02-23T16:52:52;97629.13;;;14.04;98.04
18850;BME280;4989;48.772;9.154;2023-02-23T16:57:59;97622.88;;;13.94;98.97
18850;BME280;4989;48.772;9.154;2023-02-23T17:03:13;97637.59;;;13.88;99.30
18850;BME280;4989;48.772;9.154;2023-02-23T17:08:23;97635.19;;;13.90;98.74
18850;BME280;4989;48.772;9.154;2023-02-23T17:13:28;97635.13;;;13.71;99.17
18850;BME280;4989;48.772;9.154;2023-02-23T17:18:36;97640.75;;;13.68;100.00
18850;BME280;4989;48.772;9.154;2023-02-23T17:23:41;97642.72;;;13.77;100.00
18850;BME280;4989;48.772;9.154;2023-02-23T17:28:50;97644.88;;;13.82;100.00
18850;BME280;4989;48.772;9.154;2023-02-23T17:33:52;97645.06;;;13.96;100.00
18850;BME280;4989;48.772;9.154;2023-02-23T17:38:56;97654.16;;;14.03;100.00
18850;BME280;4989;48.772;9.154;2023-02-23T17:44:01;97651.59;;;14.08;100.00
18850;BME280;4989;48.772;9.154;2023-02-23T17:49:06;97654.66;;;14.10;100.00
18850;BME280;4989;48.772;9.154;2023-02-23T17:54:09;97662.81;;;13.92;100.00
18850;BME280;4989;48.772;9.154;2023-02-23T17:59:12;97654.91;;;13.94;100.00
18850;BME280;4989;48.772;9.154;2023-02-23T18:04:15;97656.13;;;13.93;100.00
18850;BME280;4989;48.772;9.154;2023-02-23T18:09:17;97662.81;;;13.92;100.00
18850;BME280;4989;48.772;9.154;2023-02-23T18:14:19;97660.66;;;13.87;100.00
18850;BME280;4989;48.772;9.154;2023-02-23T18:19:22;97660.75;;;13.34;100.00
18850;BME280;4989;48.772;9.154;2023-02-23T18:24:28;97663.16;;;12.78;100.00
18850;BME280;4989;48.772;9.154;2023-02-23T18:29:34;97660.91;;;12.64;100.00
18850;BME280;4989;48.772;9.154;2023-02-23T18:34:37;97665.88;;;12.78;100.00
18850;BME280;4989;48.772;9.154;2023-02-23T18:39:40;97663.81;;;12.92;100.00
18850;BME280;4989;48.772;9.154;2023-02-23T18:44:42;97661.44;;;12.94;100.00
18850;BME280;4989;48.772;9.154;2023-02-23T18:49:46;97659.03;;;12.96;100.00
18850;BME280;4989;48.772;9.154;2023-02-23T18:54:48;97658.25;;;12.73;100.00
18850;BME280;4989;48.772;9.154;2023-02-23T18:59:52;97658.16;;;12.42;100.00
18850;BME280;4989;48.772;9.154;2023-02-23T19:04:55;97658.78;;;12.59;100.00
18850;BME280;4989;48.772;9.154;2023-02-23T19:10:06;97657.09;;;12.40;100.00
18850;BME280;4989;48.772;9.154;2023-02-23T19:15:11;97653.78;;;12.23;100.00
18850;BME280;4989;48.772;9.154;2023-02-23T19:20:13;97655.00;;;12.09;100.00
18850;BME280;4989;48.772;9.154;2023-02-23T19:25:16;97651.06;;;12.10;100.00
18850;BME280;4989;48.772;9.154;2023-02-23T19:30:19;97651.81;;;12.23;100.00
18850;BME280;4989;48.772;9.154;2023-02-23T19:35:21;97650.47;;;12.28;100.00
18850;BME280;4989;48.772;9.154;2023-02-23T19:40:24;97655.16;;;12.27;100.00
18850;BME280;4989;48.772;9.154;2023-02-23T19:45:30;97653.94;;;12.28;100.00
18850;BME280;4989;48.772;9.154;2023-02-23T19:50:33;97644.53;;;12.42;100.00
18850;BME280;4989;48.772;9.154;2023-02-23T19:55:37;97639.09;;;12.64;100.00
18850;BME280;4989;48.772;9.154;2023-02-23T20:00:43;97646.22;;;12.83;100.00
18850;BME280;4989;48.772;9.154;2023-02-23T20:05:48;97651.06;;;12.89;100.00
18850;BME280;4989;48.772;9.154;2023-02-23T20:10:51;97648.72;;;13.00;100.00
18850;BME280;4989;48.772;9.154;2023-02-23T20:16:08;97646.56;;;12.95;100.00
18850;BME280;4989;48.772;9.154;2023-02-23T20:21:15;97643.31;;;12.56;100.00
18850;BME280;4989;48.772;9.154;2023-02-23T20:26:24;97648.59;;;12.37;100.00
18850;BME280;4989;48.772;9.154;2023-02-23T20:31:31;97651.75;;;12.36;100.00
18850;BME280;4989;48.772;9.154;2023-02-23T20:36:36;97643.03;;;12.63;100.00
18850;BME280;4989;48.772;9.154;2023-02-23T20:41:38;97655.59;;;12.60;100.00
18850;BME280;4989;48.772;9.154;2023-02-23T20:46:44;97657.09;;;12.40;100.00
18850;BME280;4989;48.772;9.154;2023-02-23T20:51:46;97649.09;;;12.23;100.00
18850;BME280;4989;48.772;9.154;2023-02-23T20:56:49;97653.41;;;12.33;100.00
18850;BME280;4989;48.772;9.154;2023-02-23T21:02:00;97648.19;;;12.26;100.00
18850;BME280;4989;48.772;9.154;2023-02-23T21:07:35;97640.78;;;12.27;100.00
18850;BME280;4989;48.772;9.154;2023-02-23T21:12:37;97635.34;;;12.49;100.00
18850;BME280;4989;48.772;9.154;2023-02-23T21:17:40;97630.84;;;12.55;100.00
18850;BME280;4989;48.772;9.154;2023-02-23T21:22:43;97634.03;;;12.75;100.00
18850;BME280;4989;48.772;9.154;2023-02-23T21:27:46;97632.72;;;12.80;100.00
18850;BME280;4989;48.772;9.154;2023-02-23T21:32:51;97633.91;;;12.57;100.00
18850;BME280;4989;48.772;9.154;2023-02-23T21:37:54;97626.06;;;12.59;100.00
18850;BME280;4989;48.772;9.154;2023-02-23T21:42:57;97633.16;;;12.78;100.00
18850;BME280;4989;48.772;9.154;2023-02-23T21:48:01;97628.16;;;12.77;100.00
18850;BME280;4989;48.772;9.154;2023-02-23T21:53:05;97625.28;;;12.80;100.00
18850;BME280;4989;48.772;9.154;2023-02-23T21:58:08;97615.69;;;12.76;100.00
18850;BME280;4989;48.772;9.154;2023-02-23T22:03:10;97621.56;;;12.65;100.00
18850;BME280;4989;48.772;9.154;2023-02-23T22:08:13;97618.44;;;12.54;100.00
18850;BME280;4989;48.772;9.154;2023-02-23T22:13:16;97620.50;;;12.28;100.00
18850;BME280;4989;48.772;9.154;2023-02-23T22:18:18;97623.75;;;12.35;100.00
18850;BME280;4989;48.772;9.154;2023-02-23T22:23:21;97632.63;;;12.71;100.00
18850;BME280;4989;48.772;9.154;2023-02-23T22:28:23;97625.97;;;12.72;100.00
18850;BME280;4989;48.772;9.154;2023-02-23T22:33:26;97622.81;;;12.73;100.00
18850;BME280;4989;48.772;9.154;2023-02-23T22:38:28;97622.09;;;12.82;100.00
18850;BME280;4989;48.772;9.154;2023-02-23T22:43:31;97612.72;;;12.61;100.00
18850;BME280;4989;48.772;9.154;2023-02-23T22:48:35;97610.53;;;12.47;100.00
18850;BME280;4989;48.772;9.154;2023-02-23T22:53:38;97599.28;;;12.45;100.00
18850;BME280;4989;48.772;9.154;2023-02-23T22:58:40;97599.34;;;12.54;100.00
18850;BME280;4989;48.772;9.154;2023-02-23T23:03:45;97599.41;;;12.63;100.00
18850;BME280;4989;48.772;9.154;2023-02-23T23:08:53;97597.38;;;12.76;100.00
18850;BME280;4989;48.772;9.154;2023-02-23T23:13:58;97589.47;;;12.69;100.00
18850;BME280;4989;48.772;9.154;2023-02-23T23:19:08;97589.97;;;12.33;100.00
18850;BME280;4989;48.772;9.154;2023-02-23T23:24:13;97582.66;;;12.08;100.00
18850;BME280;4989;48.772;9.154;2023-02-23T23:29:16;97579.84;;;11.99;100.00
18850;BME280;4989;48.772;9.154;2023-02-23T23:34:19;97574.50;;;11.82;100.00
18850;BME280;4989;48.772;9.154;2023-02-23T23:39:23;97569.41;;;11.84;100.00
18850;BME280;4989;48.772;9.154;2023-02-23T23:44:27;97560.78;;;11.99;100.00
18850;BME280;4989;48.772;9.154;2023-02-23T23:49:33;97554.97;;;12.09;100.00
18850;BME280;4989;48.772;9.154;2023-02-23T23:54:42;97552.75;;;12.17;100.00
18850;BME280;4989;48.772;9.154;2023-02-23T23:59:45;97550.72;;;12.30;100.00
